sensor_id;sensor_type;location;lat;lon;timestamp;pressure;altitude;pressure_sealevel;temperature;humidity
55032;BME280;40928;51.076;7.950;2023-11-21T00:02:21;96400.94;;;5.56;100.00
55032;BME280;40928;51.076;7.950;2023-11-21T00:04:48;96398.41;;;5.61;100.00
55032;BME280;40928;51.076;7.950;2023-11-21T00:07:14;96398.81;;;5.65;100.00
55032;BME280;40928;51.076;7.950;2023-11-21T00:09:40;96397.88;;;5.71;100.00
55032;BME280;40928;51.076;7.950;2023-11-21T00:12:07;96404.00;;;5.72;100.00
55032;BME280;40928;51.076;7.950;2023-11-21T00:14:37;96400.34;;;5.73;100.00
55032;BME280;40928;51.076;7.950;2023-11-21T00:17:04;96400.34;;;5.73;100.00
55032;BME280;40928;51.076;7.950;2023-11-21T00:19:30;96399.50;;;5.72;100.00
55032;BME280;40928;51.076;7.950;2023-11-21T00:21:56;96413.00;;;5.71;100.00
55032;BME280;40928;51.076;7.950;2023-11-21T00:24:24;96406.50;;;5.67;100.00
55032;BME280;40928;51.076;7.950;2023-11-21T00:26:50;96414.91;;;5.63;100.00
55032;BME280;40928;51.076;7.950;2023-11-21T00:29:17;96412.47;;;5.62;100.00
55032;BME280;40928;51.076;7.950;2023-11-21T00:31:44;96409.25;;;5.60;100.00
55032;BME280;40928;51.076;7.950;2023-11-21T00:34:12;96420.06;;;5.58;100.00
55032;BME280;40928;51.076;7.950;2023-11-21T00:36:38;96415.56;;;5.59;100.00
55032;BME280;40928;51.076;7.950;2023-11-21T00:39:04;96408.44;;;5.59;100.00
55032;BME280;40928;51.076;7.950;2023-11-21T00:41:31;96405.78;;;5.59;100.00
55032;BME280;40928;51.076;7.950;2023-11-21T00:43:57;96406.59;;;5.60;100.00
55032;BME280;40928;51.076;7.950;2023-11-21T00:46:24;96416.16;;;5.61;100.00
55032;BME280;40928;51.076;7.950;2023-11-21T00:48:52;96414.09;;;5.63;100.00
55032;BME280;40928;51.076;7.950;2023-11-21T00:51:20;96420.00;;;5.65;100.00
55032;BME280;40928;51.076;7.950;2023-11-21T00:53:45;96415.94;;;5.62;100.00
55032;BME280;40928;51.076;7.950;2023-11-21T00:56:12;96413.88;;;5.64;100.00
55032;BME280;40928;51.076;7.950;2023-11-21T00:58:37;96420.44;;;5.62;100.00
55032;BME280;40928;51.076;7.950;2023-11-21T01:01:03;96421.69;;;5.59;100.00
55032;BME280;40928;51.076;7.950;2023-11-21T01:03:28;96420.50;;;5.55;100.00
55032;BME280;40928;51.076;7.950;2023-11-21T01:05:54;96427.63;;;5.55;100.00
55032;BME280;40928;51.076;7.950;2023-11-21T01:08:20;96437.19;;;5.56;100.00
55032;BME280;40928;51.076;7.950;2023-11-21T01:10:46;96433.75;;;5.55;100.00
55032;BME280;40928;51.076;7.950;2023-11-21T01:13:12;96422.41;;;5.48;100.00
55032;BME280;40928;51.076;7.950;2023-11-21T01:15:40;96439.41;;;5.59;100.00
55032;BME280;40928;51.076;7.950;2023-11-21T01:18:07;96430.19;;;5.61;100.00
55032;BME280;40928;51.076;7.950;2023-11-21T01:20:34;96437.94;;;5.63;100.00
55032;BME280;40928;51.076;7.950;2023-11-21T01:23:00;96435.50;;;5.61;100.00
55032;BME280;40928;51.076;7.950;2023-11-21T01:25:26;96438.16;;;5.61;100.00
55032;BME280;40928;51.076;7.950;2023-11-21T01:27:52;96445.06;;;5.62;100.00
55032;BME280;40928;51.076;7.950;2023-11-21T01:30:18;96449.91;;;5.66;100.00
55032;BME280;40928;51.076;7.950;2023-11-21T01:32:43;96454.78;;;5.69;100.00
55032;BME280;40928;51.076;7.950;2023-11-21T01:35:09;96453.31;;;5.73;100.00
55032;BME280;40928;51.076;7.950;2023-11-21T01:37:36;96455.56;;;5.69;100.00
55032;BME280;40928;51.076;7.950;2023-11-21T01:40:03;96452.56;;;5.66;100.00
55032;BME280;40928;51.076;7.950;2023-11-21T01:42:31;96458.78;;;5.59;100.00
55032;BME280;40928;51.076;7.950;2023-11-21T01:44:56;96458.63;;;5.54;100.00
55032;BME280;40928;51.076;7.950;2023-11-21T01:47:22;96462.06;;;5.55;100.00
55032;BME280;40928;51.076;7.950;2023-11-21T01:49:47;96464.50;;;5.56;100.00
55032;BME280;40928;51.076;7.950;2023-11-21T01:52:13;96466.47;;;5.61;100.00
55032;BME280;40928;51.076;7.950;2023-11-21T01:54:41;96458.78;;;5.59;100.00
55032;BME280;40928;51.076;7.950;2023-11-21T01:57:07;96460.75;;;5.64;100.00
55032;BME280;40928;51.076;7.950;2023-11-21T01:59:37;96460.31;;;5.67;100.00
55032;BME280;40928;51.076;7.950;2023-11-21T02:02:06;96456.84;;;5.67;100.00
55032;BME280;40928;51.076;7.950;2023-11-21T02:04:33;96450.75;;;5.66;100.00
55032;BME280;40928;51.076;7.950;2023-11-21T02:06:59;96457.88;;;5.66;100.00
55032;BME280;40928;51.076;7.950;2023-11-21T02:09:26;96463.41;;;5.64;100.00
55032;BME280;40928;51.076;7.950;2023-11-21T02:11:56;96469.50;;;5.64;100.00
55032;BME280;40928;51.076;7.950;2023-11-21T02:14:22;96466.41;;;5.68;100.00
55032;BME280;40928;51.076;7.950;2023-11-21T02:16:50;96468.63;;;5.71;100.00
55032;BME280;40928;51.076;7.950;2023-11-21T02:19:21;96471.94;;;5.66;100.00
55032;BME280;40928;51.076;7.950;2023-11-21T02:21:56;96472.38;;;5.63;100.00
55032;BME280;40928;51.076;7.950;2023-11-21T02:24:28;96472.97;;;5.65;100.00
55032;BME280;40928;51.076;7.950;2023-11-21T02:26:54;96475.38;;;5.67;100.00
55032;BME280;40928;51.076;7.950;2023-11-21T02:29:21;96484.34;;;5.66;100.00
55032;BME280;40928;51.076;7.950;2023-11-21T02:31:54;96476.66;;;5.64;100.00
55032;BME280;40928;51.076;7.950;2023-11-21T02:34:22;96479.50;;;5.62;100.00
55032;BME280;40928;51.076;7.950;2023-11-21T02:36:48;96483.41;;;5.60;100.00
55032;BME280;40928;51.076;7.950;2023-11-21T02:39:17;96482.59;;;5.59;100.00
55032;BME280;40928;51.076;7.950;2023-11-21T02:41:44;96488.94;;;5.58;100.00
55032;BME280;40928;51.076;7.950;2023-11-21T02:44:09;96487.09;;;5.59;100.00
55032;BME280;40928;51.076;7.950;2023-11-21T02:46:36;96485.81;;;5.61;100.00
55032;BME280;40928;51.076;7.950;2023-11-21T02:49:05;96495.63;;;5.61;100.00
55032;BME280;40928;51.076;7.950;2023-11-21T02:51:36;96492.19;;;5.60;100.00
55032;BME280;40928;51.076;7.950;2023-11-21T02:54:03;96499.06;;;5.61;100.00
55032;BME280;40928;51.076;7.950;2023-11-21T02:56:33;96500.13;;;5.60;100.00
55032;BME280;40928;51.076;7.950;2023-11-21T02:59:00;96500.13;;;5.60;100.00
55032;BME280;40928;51.076;7.950;2023-11-21T03:01:26;96500.25;;;5.66;100.00
55032;BME280;40928;51.076;7.950;2023-11-21T03:03:53;96505.91;;;5.69;100.00
55032;BME280;40928;51.076;7.950;2023-11-21T03:06:21;96495.13;;;5.71;100.00
55032;BME280;40928;51.076;7.950;2023-11-21T03:08:47;96493.72;;;5.68;100.00
55032;BME280;40928;51.076;7.950;2023-11-21T03:11:13;96500.41;;;5.71;100.00
55032;BME280;40928;51.076;7.950;2023-11-21T03:13:41;96498.56;;;5.71;100.00
55032;BME280;40928;51.076;7.950;2023-11-21T03:16:11;96498.78;;;5.70;100.00
55032;BME280;40928;51.076;7.950;2023-11-21T03:18:38;96503.66;;;5.73;100.00
55032;BME280;40928;51.076;7.950;2023-11-21T03:21:04;96498.78;;;5.70;100.00
55032;BME280;40928;51.076;7.950;2023-11-21T03:23:31;96505.28;;;5.74;100.00
55032;BME280;40928;51.076;7.950;2023-11-21T03:25:56;96509.97;;;5.72;100.00
55032;BME280;40928;51.076;7.950;2023-11-21T03:28:22;96510.78;;;5.72;100.00
55032;BME280;40928;51.076;7.950;2023-11-21T03:30:48;96516.91;;;5.73;100.00
55032;BME280;40928;51.076;7.950;2023-11-21T03:33:13;96513.22;;;5.74;100.00
55032;BME280;40928;51.076;7.950;2023-11-21T03:35:39;96527.50;;;5.73;100.00
55032;BME280;40928;51.076;7.950;2023-11-21T03:38:07;96525.44;;;5.75;100.00
55032;BME280;40928;51.076;7.950;2023-11-21T03:40:33;96526.00;;;5.77;100.00
55032;BME280;40928;51.076;7.950;2023-11-21T03:42:58;96531.91;;;5.79;100.00
55032;BME280;40928;51.076;7.950;2023-11-21T03:45:24;96532.50;;;5.81;100.00
55032;BME280;40928;51.076;7.950;2023-11-21T03:47:49;96534.72;;;5.84;100.00
55032;BME280;40928;51.076;7.950;2023-11-21T03:50:15;96525.97;;;5.84;100.00
55032;BME280;40928;51.076;7.950;2023-11-21T03:52:43;96525.06;;;5.90;100.00
55032;BME280;40928;51.076;7.950;2023-11-21T03:55:09;96530.16;;;5.91;100.00
55032;BME280;40928;51.076;7.950;2023-11-21T03:57:36;96526.31;;;5.87;100.00
55032;BME280;40928;51.076;7.950;2023-11-21T04:00:03;96530.66;;;5.82;100.00
55032;BME280;40928;51.076;7.950;2023-11-21T04:02:37;96542.66;;;5.84;100.00
55032;BME280;40928;51.076;7.950;2023-11-21T04:05:03;96551.63;;;5.83;100.00
55032;BME280;40928;51.076;7.950;2023-11-21T04:07:28;96561.19;;;5.84;100.00
55032;BME280;40928;51.076;7.950;2023-11-21T04:09:54;96551.19;;;5.86;100.00
55032;BME280;40928;51.076;7.950;2023-11-21T04:12:19;96561.13;;;5.91;100.00
55032;BME280;40928;51.076;7.950;2023-11-21T04:14:45;96561.97;;;5.91;100.00
55032;BME280;40928;51.076;7.950;2023-11-21T04:17:10;96564.81;;;5.90;100.00
55032;BME280;40928;51.076;7.950;2023-11-21T04:19:36;96562.97;;;5.90;100.00
55032;BME280;40928;51.076;7.950;2023-11-21T04:22:02;96562.81;;;5.85;100.00
55032;BME280;40928;51.076;7.950;2023-11-21T04:24:27;96568.50;;;5.89;100.00
55032;BME280;40928;51.076;7.950;2023-11-21T04:26:53;96573.78;;;5.89;100.00
55032;BME280;40928;51.076;7.950;2023-11-21T04:29:18;96569.31;;;5.89;100.00
55032;BME280;40928;51.076;7.950;2023-11-21T04:31:44;96577.41;;;5.94;100.00
55032;BME280;40928;51.076;7.950;2023-11-21T04:34:09;96578.00;;;5.97;100.00
55032;BME280;40928;51.076;7.950;2023-11-21T04:36:35;96583.28;;;5.97;100.00
55032;BME280;40928;51.076;7.950;2023-11-21T04:39:00;96585.94;;;5.97;100.00
55032;BME280;40928;51.076;7.950;2023-11-21T04:41:26;96585.94;;;5.97;100.00
55032;BME280;40928;51.076;7.950;2023-11-21T04:43:51;96592.06;;;5.97;100.00
55032;BME280;40928;51.076;7.950;2023-11-21T04:46:17;96593.88;;;5.97;100.00
55032;BME280;40928;51.076;7.950;2023-11-21T04:48:42;96594.72;;;5.97;100.00
55032;BME280;40928;51.076;7.950;2023-11-21T04:51:08;96602.44;;;5.99;100.00
55032;BME280;40928;51.076;7.950;2023-11-21T04:53:34;96606.75;;;6.00;100.00
55032;BME280;40928;51.076;7.950;2023-11-21T04:56:00;96603.84;;;6.01;100.00
55032;BME280;40928;51.076;7.950;2023-11-21T04:58:25;96604.25;;;6.05;100.00
55032;BME280;40928;51.076;7.950;2023-11-21T05:00:51;96607.94;;;6.04;100.00
55032;BME280;40928;51.076;7.950;2023-11-21T05:03:16;96610.56;;;6.04;100.00
55032;BME280;40928;51.076;7.950;2023-11-21T05:05:42;96610.16;;;6.07;100.00
55032;BME280;40928;51.076;7.950;2023-11-21T05:08:07;96602.75;;;6.09;100.00
55032;BME280;40928;51.076;7.950;2023-11-21T05:10:33;96611.53;;;6.09;100.00
55032;BME280;40928;51.076;7.950;2023-11-21T05:12:59;96618.53;;;6.04;100.00
55032;BME280;40928;51.076;7.950;2023-11-21T05:15:24;96614.38;;;6.08;100.00
55032;BME280;40928;51.076;7.950;2023-11-21T05:17:50;96618.66;;;6.09;100.00
55032;BME280;40928;51.076;7.950;2023-11-21T05:20:17;96615.22;;;6.08;100.00
55032;BME280;40928;51.076;7.950;2023-11-21T05:22:46;96616.59;;;6.11;100.00
55032;BME280;40928;51.076;7.950;2023-11-21T05:25:13;96617.63;;;6.10;100.00
55032;BME280;40928;51.076;7.950;2023-11-21T05:27:39;96617.63;;;6.10;100.00
55032;BME280;40928;51.076;7.950;2023-11-21T05:30:06;96620.28;;;6.10;100.00
55032;BME280;40928;51.076;7.950;2023-11-21T05:32:34;96625.38;;;6.12;100.00
55032;BME280;40928;51.076;7.950;2023-11-21T05:35:00;96624.56;;;6.11;100.00
55032;BME280;40928;51.076;7.950;2023-11-21T05:37:26;96633.53;;;6.10;100.00
55032;BME280;40928;51.076;7.950;2023-11-21T05:39:55;96638.84;;;6.10;100.00
55032;BME280;40928;51.076;7.950;2023-11-21T05:42:22;96637.22;;;6.09;100.00
55032;BME280;40928;51.076;7.950;2023-11-21T05:44:48;96642.53;;;6.09;100.00
55032;BME280;40928;51.076;7.950;2023-11-21T05:47:14;96632.81;;;6.03;100.00
55032;BME280;40928;51.076;7.950;2023-11-21T05:49:40;96636.66;;;6.07;100.00
55032;BME280;40928;51.076;7.950;2023-11-21T05:52:05;96637.69;;;6.06;100.00
55032;BME280;40928;51.076;7.950;2023-11-21T05:54:31;96621.00;;;5.99;100.00
55032;BME280;40928;51.076;7.950;2023-11-21T05:56:57;96642.53;;;6.09;100.00
55032;BME280;40928;51.076;7.950;2023-11-21T05:59:23;96647.03;;;6.08;100.00
55032;BME280;40928;51.076;7.950;2023-11-21T06:01:48;96651.06;;;6.11;100.00
55032;BME280;40928;51.076;7.950;2023-11-21T06:04:14;96661.25;;;6.14;100.00
55032;BME280;40928;51.076;7.950;2023-11-21T06:06:39;96663.47;;;6.17;100.00
55032;BME280;40928;51.076;7.950;2023-11-21T06:09:05;96658.75;;;6.19;100.00
55032;BME280;40928;51.076;7.950;2023-11-21T06:11:35;96671.41;;;6.17;100.00
55032;BME280;40928;51.076;7.950;2023-11-21T06:14:01;96665.94;;;6.12;100.00
55032;BME280;40928;51.076;7.950;2023-11-21T06:16:28;96678.59;;;6.10;100.00
55032;BME280;40928;51.076;7.950;2023-11-21T06:18:54;96675.00;;;6.04;100.00
55032;BME280;40928;51.076;7.950;2023-11-21T06:21:20;96677.63;;;6.04;100.00
55032;BME280;40928;51.076;7.950;2023-11-21T06:23:46;96685.81;;;6.03;100.00
55032;BME280;40928;51.076;7.950;2023-11-21T06:26:11;96688.25;;;6.04;100.00
55032;BME280;40928;51.076;7.950;2023-11-21T06:28:38;96693.13;;;6.07;100.00
55032;BME280;40928;51.076;7.950;2023-11-21T06:31:04;96695.59;;;6.02;100.00
55032;BME280;40928;51.076;7.950;2023-11-21T06:33:31;96699.50;;;6.00;100.00
55032;BME280;40928;51.076;7.950;2023-11-21T06:35:57;96697.84;;;5.99;100.00
55032;BME280;40928;51.076;7.950;2023-11-21T06:38:22;96700.50;;;5.99;100.00
55032;BME280;40928;51.076;7.950;2023-11-21T06:40:48;96699.31;;;5.94;100.00
55032;BME280;40928;51.076;7.950;2023-11-21T06:43:13;96708.69;;;5.97;100.00
55032;BME280;40928;51.076;7.950;2023-11-21T06:45:39;96720.09;;;5.98;100.00
55032;BME280;40928;51.076;7.950;2023-11-21T06:48:05;96727.84;;;5.99;100.00
55032;BME280;40928;51.076;7.950;2023-11-21T06:50:30;96723.34;;;6.00;100.00
55032;BME280;40928;51.076;7.950;2023-11-21T06:52:56;96718.66;;;6.02;100.00
55032;BME280;40928;51.076;7.950;2023-11-21T06:55:21;96723.34;;;6.00;100.00
55032;BME280;40928;51.076;7.950;2023-11-21T06:57:47;96725.78;;;6.01;100.00
55032;BME280;40928;51.076;7.950;2023-11-21T07:00:15;96721.31;;;6.02;100.00
55032;BME280;40928;51.076;7.950;2023-11-21T07:02:43;96716.00;;;6.02;100.00
55032;BME280;40928;51.076;7.950;2023-11-21T07:05:08;96729.25;;;6.02;100.00
55032;BME280;40928;51.076;7.950;2023-11-21T07:07:34;96722.34;;;6.01;100.00
55032;BME280;40928;51.076;7.950;2023-11-21T07:10:01;96728.22;;;6.03;100.00
55032;BME280;40928;51.076;7.950;2023-11-21T07:12:31;96733.53;;;6.03;100.00
55032;BME280;40928;51.076;7.950;2023-11-21T07:14:57;96730.66;;;6.04;100.00
55032;BME280;40928;51.076;7.950;2023-11-21T07:17:23;96736.56;;;6.06;100.00
55032;BME280;40928;51.076;7.950;2023-11-21T07:19:49;96729.84;;;6.04;100.00
55032;BME280;40928;51.076;7.950;2023-11-21T07:22:15;96738.88;;;5.96;100.00
55032;BME280;40928;51.076;7.950;2023-11-21T07:24:48;96743.38;;;5.89;100.00
55032;BME280;40928;51.076;7.950;2023-11-21T07:27:16;96751.38;;;5.82;100.00
55032;BME280;40928;51.076;7.950;2023-11-21T07:29:42;96757.94;;;5.79;100.00
55032;BME280;40928;51.076;7.950;2023-11-21T07:32:07;96768.97;;;5.76;100.00
55032;BME280;40928;51.076;7.950;2023-11-21T07:34:35;96772.69;;;5.69;100.00
55032;BME280;40928;51.076;7.950;2023-11-21T07:37:00;96771.06;;;5.68;100.00
55032;BME280;40928;51.076;7.950;2023-11-21T07:39:26;96784.31;;;5.68;100.00
55032;BME280;40928;51.076;7.950;2023-11-21T07:41:51;96780.25;;;5.65;100.00
55032;BME280;40928;51.076;7.950;2023-11-21T07:44:17;96784.53;;;5.66;100.00
55032;BME280;40928;51.076;7.950;2023-11-21T07:46:43;96788.34;;;5.70;100.00
55032;BME280;40928;51.076;7.950;2023-11-21T07:49:08;96786.91;;;5.74;100.00
55032;BME280;40928;51.076;7.950;2023-11-21T07:51:34;96794.19;;;5.79;100.00
55032;BME280;40928;51.076;7.950;2023-11-21T07:53:59;96807.88;;;5.83;100.00
55032;BME280;40928;51.076;7.950;2023-11-21T07:56:25;96804.19;;;5.84;100.00
55032;BME280;40928;51.076;7.950;2023-11-21T07:58:51;96812.94;;;5.84;100.00
55032;BME280;40928;51.076;7.950;2023-11-21T08:01:17;96820.09;;;5.84;100.00
55032;BME280;40928;51.076;7.950;2023-11-21T08:03:42;96816.84;;;5.82;100.00
55032;BME280;40928;51.076;7.950;2023-11-21T08:06:09;96815.81;;;5.83;100.00
55032;BME280;40928;51.076;7.950;2023-11-21T08:08:35;96816.78;;;5.88;100.00
55032;BME280;40928;51.076;7.950;2023-11-21T08:11:00;96825.72;;;5.94;100.00
55032;BME280;40928;51.076;7.950;2023-11-21T08:13:29;96831.00;;;6.01;100.00
55032;BME280;40928;51.076;7.950;2023-11-21T08:15:58;96833.00;;;6.05;100.00
55032;BME280;40928;51.076;7.950;2023-11-21T08:18:27;96841.13;;;6.11;100.00
55032;BME280;40928;51.076;7.950;2023-11-21T08:20:54;96834.16;;;6.16;100.00
55032;BME280;40928;51.076;7.950;2023-11-21T08:23:20;96844.34;;;6.19;100.00
55032;BME280;40928;51.076;7.950;2023-11-21T08:25:46;96835.38;;;6.20;100.00
55032;BME280;40928;51.076;7.950;2023-11-21T08:28:12;96848.34;;;6.29;100.00
55032;BME280;40928;51.076;7.950;2023-11-21T08:30:39;96838.94;;;6.33;100.00
55032;BME280;40928;51.076;7.950;2023-11-21T08:33:07;96834.25;;;6.35;100.00
55032;BME280;40928;51.076;7.950;2023-11-21T08:35:34;96839.13;;;6.38;100.00
55032;BME280;40928;51.076;7.950;2023-11-21T08:37:59;96841.31;;;6.41;100.00
55032;BME280;40928;51.076;7.950;2023-11-21T08:40:25;96833.16;;;6.43;100.00
55032;BME280;40928;51.076;7.950;2023-11-21T08:42:50;96827.78;;;6.49;100.00
55032;BME280;40928;51.076;7.950;2023-11-21T08:45:19;96834.50;;;6.52;100.00
55032;BME280;40928;51.076;7.950;2023-11-21T08:47:45;96830.59;;;6.54;100.00
55032;BME280;40928;51.076;7.950;2023-11-21T08:50:11;96847.94;;;6.57;100.00
55032;BME280;40928;51.076;7.950;2023-11-21T08:52:40;96838.72;;;6.60;100.00
55032;BME280;40928;51.076;7.950;2023-11-21T08:55:08;96851.91;;;6.66;100.00
55032;BME280;40928;51.076;7.950;2023-11-21T08:57:37;96854.94;;;6.70;100.00
55032;BME280;40928;51.076;7.950;2023-11-21T09:00:04;96857.75;;;6.75;100.00
55032;BME280;40928;51.076;7.950;2023-11-21T09:02:33;96869.22;;;6.76;100.00
55032;BME280;40928;51.076;7.950;2023-11-21T09:05:03;96867.34;;;6.76;100.00
55032;BME280;40928;51.076;7.950;2023-11-21T09:07:29;96871.63;;;6.77;100.00
55032;BME280;40928;51.076;7.950;2023-11-21T09:09:55;96863.97;;;6.69;100.00
55032;BME280;40928;51.076;7.950;2023-11-21T09:12:20;96878.56;;;6.78;100.00
55032;BME280;40928;51.076;7.950;2023-11-21T09:14:47;96882.00;;;6.79;100.00
55032;BME280;40928;51.076;7.950;2023-11-21T09:17:12;96888.94;;;6.80;100.00
55032;BME280;40928;51.076;7.950;2023-11-21T09:19:38;96883.28;;;6.76;100.00
55032;BME280;40928;51.076;7.950;2023-11-21T09:22:04;96885.69;;;6.78;100.00
55032;BME280;40928;51.076;7.950;2023-11-21T09:24:33;96898.47;;;6.88;100.00
55032;BME280;40928;51.076;7.950;2023-11-21T09:26:59;96899.66;;;6.92;100.00
55032;BME280;40928;51.076;7.950;2023-11-21T09:29:26;96906.59;;;6.93;100.00
55032;BME280;40928;51.076;7.950;2023-11-21T09:31:51;96911.13;;;6.92;100.00
55032;BME280;40928;51.076;7.950;2023-11-21T09:34:17;96910.28;;;6.92;100.00
55032;BME280;40928;51.076;7.950;2023-11-21T09:36:47;96905.41;;;6.89;100.00
55032;BME280;40928;51.076;7.950;2023-11-21T09:39:13;96915.59;;;6.92;100.00
55032;BME280;40928;51.076;7.950;2023-11-21T09:41:49;96924.41;;;6.92;100.00
55032;BME280;40928;51.076;7.950;2023-11-21T09:44:32;96922.09;;;6.96;100.00
55032;BME280;40928;51.076;7.950;2023-11-21T09:47:00;96924.34;;;6.99;100.00
55032;BME280;40928;51.076;7.950;2023-11-21T09:49:28;96920.41;;;7.01;100.00
55032;BME280;40928;51.076;7.950;2023-11-21T09:51:58;96929.78;;;7.04;100.00
55032;BME280;40928;51.076;7.950;2023-11-21T09:54:29;96919.75;;;7.06;100.00
55032;BME280;40928;51.076;7.950;2023-11-21T09:56:58;96922.22;;;7.08;100.00
55032;BME280;40928;51.076;7.950;2023-11-21T09:59:30;96920.94;;;7.10;100.00
55032;BME280;40928;51.076;7.950;2023-11-21T10:01:56;96921.75;;;7.11;100.00
55032;BME280;40928;51.076;7.950;2023-11-21T10:04:23;96919.69;;;7.13;100.00
55032;BME280;40928;51.076;7.950;2023-11-21T10:06:50;96919.25;;;7.16;100.00
55032;BME280;40928;51.076;7.950;2023-11-21T10:09:16;96927.00;;;7.18;100.00
55032;BME280;40928;51.076;7.950;2023-11-21T10:11:43;96931.16;;;7.13;100.00
55032;BME280;40928;51.076;7.950;2023-11-21T10:14:11;96930.13;;;7.14;100.00
55032;BME280;40928;51.076;7.950;2023-11-21T10:16:40;96929.28;;;7.14;100.00
55032;BME280;40928;51.076;7.950;2023-11-21T10:19:10;96936.81;;;7.17;100.00
55032;BME280;40928;51.076;7.950;2023-11-21T10:21:35;96930.03;;;7.21;100.00
55032;BME280;40928;51.076;7.950;2023-11-21T10:24:02;96932.91;;;7.20;100.00
55032;BME280;40928;51.076;7.950;2023-11-21T10:26:28;96944.13;;;7.22;100.00
55032;BME280;40928;51.076;7.950;2023-11-21T10:29:01;96941.31;;;7.16;100.00
55032;BME280;40928;51.076;7.950;2023-11-21T10:31:30;96938.66;;;7.16;100.00
55032;BME280;40928;51.076;7.950;2023-11-21T10:34:19;96938.66;;;7.16;100.00
55032;BME280;40928;51.076;7.950;2023-11-21T10:36:45;96946.03;;;7.14;100.00
55032;BME280;40928;51.076;7.950;2023-11-21T10:39:16;96939.72;;;7.15;100.00
55032;BME280;40928;51.076;7.950;2023-11-21T10:41:45;96933.47;;;7.03;100.00
55032;BME280;40928;51.076;7.950;2023-11-21T10:44:14;96943.16;;;7.16;100.00
55032;BME280;40928;51.076;7.950;2023-11-21T10:46:45;96950.47;;;7.21;100.00
55032;BME280;40928;51.076;7.950;2023-11-21T10:49:17;96941.47;;;7.22;100.00
55032;BME280;40928;51.076;7.950;2023-11-21T10:51:46;96944.06;;;7.28;100.00
55032;BME280;40928;51.076;7.950;2023-11-21T10:54:18;96943.25;;;7.28;100.00
55032;BME280;40928;51.076;7.950;2023-11-21T10:56:43;96939.34;;;7.30;100.00
55032;BME280;40928;51.076;7.950;2023-11-21T10:59:10;96950.50;;;7.39;100.00
55032;BME280;40928;51.076;7.950;2023-11-21T11:01:45;96943.72;;;7.43;100.00
55032;BME280;40928;51.076;7.950;2023-11-21T11:04:14;96943.84;;;7.49;100.00
55032;BME280;40928;51.076;7.950;2023-11-21T11:06:50;96944.69;;;7.49;100.00
55032;BME280;40928;51.076;7.950;2023-11-21T11:09:18;96936.63;;;7.56;100.00
55032;BME280;40928;51.076;7.950;2023-11-21T11:11:43;96948.81;;;7.64;100.00
55032;BME280;40928;51.076;7.950;2023-11-21T11:14:13;96946.66;;;7.72;100.00
55032;BME280;40928;51.076;7.950;2023-11-21T11:16:40;96938.91;;;7.71;100.00
55032;BME280;40928;51.076;7.950;2023-11-21T11:19:09;96946.06;;;7.70;100.00
55032;BME280;40928;51.076;7.950;2023-11-21T11:27:04;96962.38;;;7.55;100.00
55032;BME280;40928;51.076;7.950;2023-11-21T11:29:46;96958.31;;;7.53;100.00
55032;BME280;40928;51.076;7.950;2023-11-21T11:35:46;96961.75;;;7.60;100.00
55032;BME280;40928;51.076;7.950;2023-11-21T11:38:07;96959.09;;;7.60;100.00
55032;BME280;40928;51.076;7.950;2023-11-21T11:40:46;96961.94;;;7.58;100.00
55032;BME280;40928;51.076;7.950;2023-11-21T11:43:13;96960.38;;;7.51;100.00
55032;BME280;40928;51.076;7.950;2023-11-21T11:45:38;96955.47;;;7.54;100.00
55032;BME280;40928;51.076;7.950;2023-11-21T11:48:08;96954.19;;;7.57;100.00
55032;BME280;40928;51.076;7.950;2023-11-21T11:50:33;96969.97;;;7.52;100.00
55032;BME280;40928;51.076;7.950;2023-11-21T11:53:15;96968.66;;;7.42;100.00
55032;BME280;40928;51.076;7.950;2023-11-21T11:55:41;96960.09;;;7.40;100.00
55032;BME280;40928;51.076;7.950;2023-11-21T11:58:07;96972.72;;;7.45;100.00
55032;BME280;40928;51.076;7.950;2023-11-21T12:03:01;96973.66;;;7.51;100.00
55032;BME280;40928;51.076;7.950;2023-11-21T12:05:29;96963.63;;;7.53;100.00
55032;BME280;40928;51.076;7.950;2023-11-21T12:07:59;96967.31;;;7.52;100.00
55032;BME280;40928;51.076;7.950;2023-11-21T12:10:36;96960.81;;;7.47;100.00
55032;BME280;40928;51.076;7.950;2023-11-21T12:13:09;96965.69;;;7.51;100.00
55032;BME280;40928;51.076;7.950;2023-11-21T12:15:39;96971.78;;;7.58;100.00
55032;BME280;40928;51.076;7.950;2023-11-21T12:18:07;96968.88;;;7.59;100.00
55032;BME280;40928;51.076;7.950;2023-11-21T12:20:33;96980.34;;;7.60;100.00
55032;BME280;40928;51.076;7.950;2023-11-21T12:23:04;96982.25;;;7.53;100.00
55032;BME280;40928;51.076;7.950;2023-11-21T12:25:31;96977.34;;;7.50;100.00
55032;BME280;40928;51.076;7.950;2023-11-21T12:27:59;96975.28;;;7.52;100.00
55032;BME280;40928;51.076;7.950;2023-11-21T12:30:27;96986.38;;;7.49;100.00
55032;BME280;40928;51.076;7.950;2023-11-21T12:33:01;96985.25;;;7.38;100.00
55032;BME280;40928;51.076;7.950;2023-11-21T12:35:28;96992.78;;;7.41;100.00
55032;BME280;40928;51.076;7.950;2023-11-21T12:37:55;96990.94;;;7.41;100.00
55032;BME280;40928;51.076;7.950;2023-11-21T12:40:24;96990.72;;;7.43;100.00
55032;BME280;40928;51.076;7.950;2023-11-21T12:42:55;96991.75;;;7.42;100.00
55032;BME280;40928;51.076;7.950;2023-11-21T12:45:23;96991.53;;;7.43;100.00
55032;BME280;40928;51.076;7.950;2023-11-21T12:47:52;96993.59;;;7.41;100.00
55032;BME280;40928;51.076;7.950;2023-11-21T12:50:22;96997.88;;;7.42;100.00
55032;BME280;40928;51.076;7.950;2023-11-21T12:52:58;97008.72;;;7.41;100.00
55032;BME280;40928;51.076;7.950;2023-11-21T12:55:24;97009.53;;;7.41;100.00
55032;BME280;40928;51.076;7.950;2023-11-21T12:57:55;97005.50;;;7.39;100.00
55032;BME280;40928;51.076;7.950;2023-11-21T13:00:28;97002.22;;;7.37;100.00
55032;BME280;40928;51.076;7.950;2023-11-21T13:02:55;97009.38;;;7.36;100.00
55032;BME280;40928;51.076;7.950;2023-11-21T13:05:32;97015.28;;;7.38;100.00
55032;BME280;40928;51.076;7.950;2023-11-21T13:08:00;97008.34;;;7.37;100.00
55032;BME280;40928;51.076;7.950;2023-11-21T13:10:31;97014.03;;;7.41;100.00
55032;BME280;40928;51.076;7.950;2023-11-21T13:12:59;97013.00;;;7.42;100.00